createdAt,value
2018-12-31T00:01:47.765Z,6.13
2018-12-31T00:04:18.137Z,6.20
2018-12-31T00:06:48.524Z,7.00
2018-12-31T00:09:18.928Z,6.63
2018-12-31T00:14:31.016Z,7.43
2018-12-31T00:17:02.152Z,7.17
2018-12-31T00:19:32.533Z,8.70
2018-12-31T00:22:03.955Z,6.80
2018-12-31T00:24:34.328Z,7.10
2018-12-31T00:27:04.703Z,8.80
2018-12-31T00:29:35.874Z,7.17
2018-12-31T00:32:08.046Z,7.07
2018-12-31T00:34:38.430Z,7.17
2018-12-31T00:37:09.591Z,8.33
2018-12-31T00:39:40.736Z,6.20
2018-12-31T00:42:11.109Z,7.77
2018-12-31T00:44:41.504Z,8.10
2018-12-31T00:47:11.892Z,9.70
2018-12-31T00:49:42.204Z,6.93
2018-12-31T00:52:12.617Z,8.93
2018-12-31T00:54:42.988Z,8.03
2018-12-31T00:57:14.127Z,7.43
2018-12-31T00:59:46.256Z,8.50
2018-12-31T01:02:16.635Z,9.13
2018-12-31T01:04:47.003Z,7.23
2018-12-31T01:07:17.404Z,7.03
2018-12-31T01:09:47.724Z,6.50
2018-12-31T01:12:18.287Z,6.33
2018-12-31T01:14:48.688Z,7.57
2018-12-31T01:17:19.068Z,8.03
2018-12-31T01:19:50.212Z,9.40
2018-12-31T01:22:20.923Z,7.27
2018-12-31T01:24:51.294Z,6.93
2018-12-31T01:27:21.613Z,8.00
2018-12-31T01:29:52.012Z,9.03
2018-12-31T01:32:22.391Z,6.97
2018-12-31T01:34:53.781Z,6.30
2018-12-31T01:37:24.182Z,7.93
2018-12-31T01:40:01.946Z,7.53
2018-12-31T01:42:32.292Z,6.60
2018-12-31T01:45:02.606Z,5.90
2018-12-31T01:47:32.988Z,6.87
2018-12-31T01:50:03.838Z,7.17
2018-12-31T01:52:34.209Z,8.47
2018-12-31T01:55:04.816Z,6.77
2018-12-31T01:57:37.280Z,7.00
2018-12-31T02:00:08.643Z,7.13
2018-12-31T02:02:39.782Z,6.80
2018-12-31T02:05:10.131Z,6.03
2018-12-31T02:07:40.500Z,7.90
2018-12-31T02:10:10.881Z,10.17
2018-12-31T02:12:41.303Z,7.20
2018-12-31T02:15:11.680Z,8.73
2018-12-31T02:17:42.063Z,8.00
2018-12-31T02:20:12.465Z,7.97
2018-12-31T02:22:43.600Z,7.20
2018-12-31T02:25:14.681Z,7.70
2018-12-31T02:27:46.107Z,7.47
2018-12-31T02:30:18.219Z,8.37
2018-12-31T02:32:48.597Z,5.27
2018-12-31T02:35:19.739Z,5.57
2018-12-31T02:37:50.119Z,8.10
2018-12-31T02:40:20.492Z,5.57
2018-12-31T02:42:51.542Z,6.27
2018-12-31T02:45:21.915Z,4.43
2018-12-31T02:47:54.336Z,7.57
2018-12-31T02:50:25.519Z,5.63
2018-12-31T02:52:57.880Z,3.80
2018-12-31T02:55:29.507Z,4.07
2018-12-31T02:58:00.931Z,3.97
2018-12-31T03:00:31.314Z,4.17
2018-12-31T03:03:04.755Z,5.20
2018-12-31T03:05:35.159Z,3.93
2018-12-31T03:08:25.869Z,4.50
2018-12-31T03:10:56.253Z,4.93
2018-12-31T03:13:26.641Z,3.87
2018-12-31T03:15:57.021Z,5.27
2018-12-31T03:18:27.420Z,6.40
2018-12-31T03:21:02.661Z,5.23
2018-12-31T03:23:33.826Z,7.13
2018-12-31T03:26:04.528Z,6.17
2018-12-31T03:28:34.910Z,7.97
2018-12-31T03:31:23.607Z,8.50
2018-12-31T03:33:53.970Z,7.63
2018-12-31T03:36:25.091Z,8.47
2018-12-31T03:38:55.728Z,10.20
2018-12-31T03:41:26.101Z,8.47
2018-12-31T03:43:56.483Z,9.43
2018-12-31T03:46:27.075Z,8.53
2018-12-31T03:48:57.457Z,7.83
2018-12-31T03:51:27.826Z,9.40
2018-12-31T03:53:58.231Z,7.33
2018-12-31T03:56:29.626Z,9.67
2018-12-31T03:59:00.711Z,9.43
2018-12-31T04:01:38.416Z,9.40
2018-12-31T04:04:09.757Z,8.40
2018-12-31T04:06:40.147Z,8.97
2018-12-31T04:09:11.515Z,10.00
2018-12-31T04:11:41.891Z,9.93
2018-12-31T04:14:12.258Z,9.93
2018-12-31T04:16:42.653Z,9.83
2018-12-31T04:19:13.031Z,9.83
2018-12-31T04:21:43.413Z,9.93
2018-12-31T04:24:14.145Z,10.60
2018-12-31T04:26:44.525Z,10.53
2018-12-31T04:29:16.944Z,8.93
2018-12-31T04:31:48.363Z,9.60
2018-12-31T04:34:18.740Z,8.37
2018-12-31T04:36:49.116Z,10.50
2018-12-31T04:42:01.258Z,11.00
2018-12-31T04:44:31.911Z,11.37
2018-12-31T04:47:02.289Z,11.50
2018-12-31T04:49:32.675Z,11.27
2018-12-31T04:52:03.073Z,12.13
2018-12-31T04:54:33.402Z,13.63
2018-12-31T04:57:03.969Z,9.07
2018-12-31T04:59:34.378Z,11.47
2018-12-31T05:02:05.532Z,10.27
2018-12-31T05:04:35.907Z,10.30
2018-12-31T05:07:06.316Z,11.43
2018-12-31T05:09:36.906Z,10.70
2018-12-31T05:12:08.046Z,10.27
2018-12-31T05:14:38.881Z,9.87
2018-12-31T05:17:11.055Z,9.47
2018-12-31T05:19:42.210Z,10.27
2018-12-31T05:22:12.597Z,9.40
2018-12-31T05:24:42.976Z,9.83
2018-12-31T05:27:13.650Z,9.67
2018-12-31T05:29:46.799Z,10.00
2018-12-31T05:32:17.171Z,10.00
2018-12-31T05:34:47.553Z,8.37
2018-12-31T05:37:17.946Z,9.57
2018-12-31T05:39:48.325Z,10.27
2018-12-31T05:42:21.784Z,11.07
2018-12-31T05:44:53.120Z,10.80
2018-12-31T05:47:24.259Z,9.63
2018-12-31T05:49:54.578Z,9.90
2018-12-31T05:52:24.964Z,8.73
2018-12-31T05:55:02.660Z,9.20
2018-12-31T05:57:34.068Z,10.83
2018-12-31T06:00:05.472Z,9.60
2018-12-31T06:02:35.853Z,10.13
2018-12-31T06:05:07.770Z,10.03
2018-12-31T06:07:38.140Z,8.23
2018-12-31T06:10:08.509Z,9.27
2018-12-31T06:12:38.920Z,6.40
2018-12-31T06:15:09.307Z,9.17
2018-12-31T06:17:40.444Z,8.10
2018-12-31T06:20:10.841Z,7.40
2018-12-31T06:22:41.212Z,7.17
2018-12-31T06:25:12.557Z,6.10
2018-12-31T06:27:43.714Z,8.97
2018-12-31T06:30:14.090Z,6.83
2018-12-31T06:32:44.467Z,7.53
2018-12-31T06:35:14.872Z,8.87
2018-12-31T06:37:46.027Z,10.13
2018-12-31T06:40:17.167Z,8.63
2018-12-31T06:42:48.347Z,7.10
2018-12-31T06:45:19.761Z,6.27
2018-12-31T06:47:50.893Z,8.30
2018-12-31T06:50:21.292Z,8.50
2018-12-31T06:52:51.672Z,6.47
2018-12-31T06:55:22.814Z,8.63
2018-12-31T06:57:54.999Z,8.30
2018-12-31T07:00:25.384Z,9.37
2018-12-31T07:02:56.034Z,6.93
2018-12-31T07:05:27.203Z,7.37
2018-12-31T07:07:57.583Z,7.33
2018-12-31T07:10:27.896Z,8.20
2018-12-31T07:12:58.233Z,7.80
2018-12-31T07:15:28.610Z,7.70
2018-12-31T07:17:58.980Z,7.43
2018-12-31T07:20:29.393Z,6.53
2018-12-31T07:22:59.777Z,7.57
2018-12-31T07:25:30.163Z,7.10
2018-12-31T07:28:00.569Z,9.10
2018-12-31T07:30:31.962Z,8.03
2018-12-31T07:33:03.111Z,6.13
2018-12-31T07:35:34.288Z,8.13
2018-12-31T07:38:05.868Z,7.67
2018-12-31T07:40:36.249Z,8.80
2018-12-31T07:43:06.862Z,7.70
2018-12-31T07:45:37.241Z,9.30
2018-12-31T07:48:08.645Z,9.77
2018-12-31T07:50:39.807Z,8.43
2018-12-31T07:53:10.413Z,10.47
2018-12-31T07:55:41.564Z,11.20
2018-12-31T07:58:11.960Z,10.00
2018-12-31T08:00:42.328Z,8.43
2018-12-31T08:03:12.895Z,7.87
2018-12-31T08:05:43.305Z,8.93
2018-12-31T08:08:15.673Z,8.40
2018-12-31T08:10:46.055Z,10.37
2018-12-31T08:13:17.213Z,9.80
2018-12-31T08:15:48.361Z,8.90
2018-12-31T08:18:19.499Z,9.63
2018-12-31T08:20:50.677Z,9.33
2018-12-31T08:23:21.042Z,9.93
2018-12-31T08:25:51.417Z,8.93
2018-12-31T08:28:21.815Z,8.57
2018-12-31T08:30:53.016Z,9.17
2018-12-31T08:33:26.498Z,9.73
2018-12-31T08:35:56.868Z,15.20
2018-12-31T08:38:27.250Z,10.80
2018-12-31T08:40:57.670Z,9.83
2018-12-31T08:43:28.046Z,8.17
2018-12-31T08:45:58.423Z,10.53
2018-12-31T08:48:29.065Z,7.57
2018-12-31T08:50:59.441Z,7.60
2018-12-31T08:53:29.823Z,8.00
2018-12-31T08:56:00.517Z,10.50
2018-12-31T08:58:31.669Z,9.13
2018-12-31T09:01:02.801Z,7.70
2018-12-31T09:03:33.965Z,9.60
2018-12-31T09:06:04.354Z,9.63
2018-12-31T09:11:21.518Z,7.93
2018-12-31T09:13:52.660Z,9.53
2018-12-31T09:16:23.747Z,9.03
2018-12-31T09:19:15.240Z,8.13
2018-12-31T09:21:46.369Z,8.43
2018-12-31T09:24:17.513Z,8.60
2018-12-31T09:26:49.462Z,6.40
2018-12-31T09:29:20.611Z,9.10
2018-12-31T09:31:51.758Z,8.70
2018-12-31T09:34:22.916Z,8.20
2018-12-31T09:36:54.010Z,10.93
2018-12-31T09:39:24.388Z,7.20
2018-12-31T09:41:54.790Z,7.17
2018-12-31T09:44:25.166Z,8.63
2018-12-31T09:46:58.618Z,10.57
2018-12-31T09:49:29.304Z,9.93
2018-12-31T09:52:19.814Z,9.80
2018-12-31T09:54:53.269Z,9.80
2018-12-31T09:57:23.652Z,10.47
2018-12-31T09:59:54.022Z,9.43
2018-12-31T10:02:24.427Z,8.40
2018-12-31T10:04:55.571Z,8.30
2018-12-31T10:07:25.944Z,8.53
2018-12-31T10:10:00.379Z,9.40
2018-12-31T10:12:51.140Z,9.53
2018-12-31T10:15:21.542Z,11.30
2018-12-31T10:17:51.856Z,9.23
2018-12-31T10:20:22.243Z,15.50
2018-12-31T10:22:54.678Z,12.13
2018-12-31T10:25:25.821Z,9.17
2018-12-31T10:27:57.136Z,9.03
2018-12-31T10:30:27.479Z,9.00
2018-12-31T10:32:57.851Z,10.83
2018-12-31T10:35:28.455Z,9.17
2018-12-31T10:37:59.626Z,9.13
2018-12-31T10:40:30.000Z,9.87
2018-12-31T10:43:00.548Z,10.47
2018-12-31T10:45:31.720Z,8.50
2018-12-31T10:48:02.290Z,10.67
2018-12-31T10:50:33.289Z,7.73
2018-12-31T10:53:03.699Z,8.97
2018-12-31T10:55:34.054Z,9.53
2018-12-31T10:58:04.433Z,9.17
2018-12-31T11:00:34.817Z,10.40
2018-12-31T11:03:12.355Z,11.13
2018-12-31T11:05:42.808Z,9.93
2018-12-31T11:08:13.951Z,9.67
2018-12-31T11:10:44.336Z,10.10
2018-12-31T11:13:14.729Z,10.97
2018-12-31T11:15:47.155Z,8.63
2018-12-31T11:18:17.530Z,9.53
2018-12-31T11:20:49.969Z,9.27
2018-12-31T11:23:21.104Z,9.43
2018-12-31T11:25:52.194Z,10.67
2018-12-31T11:28:25.615Z,10.37
2018-12-31T11:30:57.018Z,12.13
2018-12-31T11:33:27.644Z,13.10
2018-12-31T11:35:58.810Z,11.60
2018-12-31T11:38:29.179Z,11.23
2018-12-31T11:40:59.849Z,11.70
2018-12-31T11:43:30.968Z,9.80
2018-12-31T11:46:01.369Z,10.03
2018-12-31T11:48:31.727Z,11.27
2018-12-31T11:51:02.895Z,11.00
2018-12-31T11:53:33.278Z,9.70
2018-12-31T11:56:03.738Z,13.70
2018-12-31T11:58:34.916Z,10.83
2018-12-31T12:01:08.359Z,11.17
2018-12-31T12:03:38.931Z,10.93
2018-12-31T12:06:09.339Z,10.63
2018-12-31T12:08:39.716Z,10.40
2018-12-31T12:11:17.441Z,11.30
2018-12-31T12:13:48.094Z,9.63
2018-12-31T12:16:19.239Z,11.00
2018-12-31T12:18:50.418Z,10.90
2018-12-31T12:21:23.867Z,11.20
2018-12-31T12:23:54.239Z,10.17
2018-12-31T12:26:25.037Z,9.93
2018-12-31T12:28:56.511Z,10.77
2018-12-31T12:31:27.645Z,11.33
2018-12-31T12:33:58.063Z,10.20
2018-12-31T12:36:29.149Z,10.40
2018-12-31T12:39:03.647Z,9.87
2018-12-31T12:41:34.040Z,10.93
2018-12-31T12:44:04.415Z,10.87
2018-12-31T12:46:35.020Z,10.33
2018-12-31T12:49:06.164Z,9.60
2018-12-31T12:51:37.323Z,9.53
2018-12-31T12:54:07.730Z,7.60
2018-12-31T12:56:39.079Z,9.27
2018-12-31T12:59:10.161Z,9.80
2018-12-31T13:01:46.700Z,10.20
2018-12-31T13:04:17.086Z,9.73
2018-12-31T13:06:47.458Z,9.20
2018-12-31T13:09:17.855Z,9.53
2018-12-31T13:11:48.410Z,8.63
2018-12-31T13:14:18.782Z,8.50
2018-12-31T13:16:49.171Z,6.80
2018-12-31T13:19:19.552Z,7.67
2018-12-31T13:21:51.977Z,6.53
2018-12-31T13:24:22.387Z,5.93
2018-12-31T13:26:53.527Z,6.80
2018-12-31T13:29:24.678Z,7.70
2018-12-31T13:34:38.570Z,7.90
2018-12-31T13:37:13.049Z,8.93
2018-12-31T13:39:44.381Z,7.77
2018-12-31T13:42:14.706Z,6.33
2018-12-31T13:44:45.099Z,5.67
2018-12-31T13:47:36.639Z,6.03
2018-12-31T13:50:07.040Z,6.90
2018-12-31T13:52:37.437Z,6.87
2018-12-31T13:55:08.595Z,6.20
2018-12-31T13:57:38.991Z,6.70
2018-12-31T14:00:09.362Z,6.23
2018-12-31T14:02:41.724Z,6.83
2018-12-31T14:05:12.129Z,7.90
2018-12-31T14:07:43.287Z,8.07
2018-12-31T14:10:14.625Z,6.70
2018-12-31T14:12:45.800Z,5.60
2018-12-31T14:15:18.208Z,4.97
2018-12-31T14:17:48.579Z,5.73
2018-12-31T14:20:18.927Z,4.00
2018-12-31T14:22:53.396Z,6.43
2018-12-31T14:25:23.791Z,4.57
2018-12-31T14:27:54.168Z,3.80
2018-12-31T14:30:25.302Z,3.97
2018-12-31T14:32:56.435Z,3.87
2018-12-31T14:35:26.833Z,5.90
2018-12-31T14:37:57.208Z,5.43
2018-12-31T14:40:28.302Z,3.83
2018-12-31T14:43:00.915Z,4.50
2018-12-31T14:45:32.058Z,5.03
2018-12-31T14:48:03.198Z,3.33
2018-12-31T14:50:33.595Z,4.13
2018-12-31T14:53:23.345Z,3.93
2018-12-31T14:55:53.743Z,3.73
2018-12-31T14:58:24.120Z,5.30
2018-12-31T15:00:56.538Z,5.50
2018-12-31T15:03:26.926Z,4.80
2018-12-31T15:05:58.323Z,4.00
2018-12-31T15:08:28.702Z,5.80
2018-12-31T15:11:00.126Z,5.07
2018-12-31T15:13:30.499Z,3.90
2018-12-31T15:16:00.873Z,3.90
2018-12-31T15:18:31.257Z,4.53
2018-12-31T15:21:01.908Z,4.17
2018-12-31T15:23:33.230Z,5.40
2018-12-31T15:26:03.626Z,5.90
2018-12-31T15:28:53.103Z,7.27
2018-12-31T15:31:25.559Z,10.10
2018-12-31T15:33:56.276Z,12.60
2018-12-31T15:36:27.410Z,9.17
2018-12-31T15:38:58.580Z,10.10
2018-12-31T15:41:28.947Z,6.13
2018-12-31T15:43:59.512Z,7.63
2018-12-31T15:46:30.672Z,7.03
2018-12-31T15:49:01.055Z,7.73
2018-12-31T15:51:31.444Z,7.60
2018-12-31T15:54:02.150Z,7.47
2018-12-31T15:56:33.295Z,6.53
2018-12-31T15:59:04.636Z,6.17
2018-12-31T16:01:35.803Z,5.40
2018-12-31T16:04:06.170Z,7.70
2018-12-31T16:06:36.543Z,6.30
2018-12-31T16:09:07.132Z,6.63
2018-12-31T16:11:37.505Z,8.23
2018-12-31T16:14:07.880Z,7.20
2018-12-31T16:16:38.334Z,9.13
2018-12-31T16:19:08.715Z,8.10
2018-12-31T16:21:39.094Z,9.00
2018-12-31T16:24:10.267Z,10.60
2018-12-31T16:26:40.652Z,7.17
2018-12-31T16:29:11.039Z,8.10
2018-12-31T16:31:48.752Z,7.77
2018-12-31T16:34:39.523Z,9.40
2018-12-31T16:37:09.934Z,10.33
2018-12-31T16:39:40.308Z,7.37
2018-12-31T16:42:10.693Z,7.10
2018-12-31T16:44:41.321Z,8.63
2018-12-31T16:47:12.659Z,5.57
2018-12-31T16:49:44.007Z,8.20
2018-12-31T16:52:16.205Z,8.23
2018-12-31T16:54:46.585Z,6.97
2018-12-31T16:57:16.962Z,8.97
2018-12-31T16:59:49.407Z,9.27
2018-12-31T17:02:20.559Z,9.40
2018-12-31T17:04:51.396Z,9.13
2018-12-31T17:07:28.146Z,8.40
2018-12-31T17:09:52.970Z,9.10
2018-12-31T17:12:23.337Z,9.37
2018-12-31T17:14:53.751Z,8.73
2018-12-31T17:17:24.120Z,7.00
2018-12-31T17:19:55.270Z,8.27
2018-12-31T17:22:25.685Z,7.07
2018-12-31T17:24:56.339Z,8.30
2018-12-31T17:27:27.487Z,6.77
2018-12-31T17:29:58.645Z,6.33
2018-12-31T17:32:29.016Z,6.40
2018-12-31T17:34:59.387Z,8.83
2018-12-31T17:37:30.563Z,7.57
2018-12-31T17:40:02.982Z,8.10
2018-12-31T17:42:33.544Z,7.10
2018-12-31T17:45:03.954Z,6.83
2018-12-31T17:47:35.092Z,6.60
2018-12-31T17:50:06.225Z,8.67
2018-12-31T17:52:36.627Z,8.20
2018-12-31T17:55:06.997Z,9.60
2018-12-31T18:00:19.419Z,8.40
2018-12-31T18:02:50.553Z,10.23
2018-12-31T18:05:20.933Z,10.27
2018-12-31T18:07:51.349Z,10.57
2018-12-31T18:10:22.968Z,10.93
2018-12-31T18:12:54.123Z,9.03
2018-12-31T18:15:25.289Z,10.97
2018-12-31T18:17:55.607Z,15.77
2018-12-31T18:20:25.997Z,14.47
2018-12-31T18:22:56.393Z,15.57
2018-12-31T18:25:48.190Z,14.20
2018-12-31T18:28:18.597Z,11.00
2018-12-31T18:30:49.729Z,7.70
2018-12-31T18:33:20.884Z,5.40
2018-12-31T18:35:52.049Z,5.10
2018-12-31T18:38:22.428Z,4.90
2018-12-31T18:40:52.803Z,3.83
2018-12-31T18:43:23.413Z,4.00
2018-12-31T18:45:54.562Z,4.13
2018-12-31T18:48:25.702Z,5.67
2018-12-31T18:50:56.858Z,4.20
2018-12-31T18:53:27.237Z,5.60
2018-12-31T18:55:57.612Z,6.13
2018-12-31T18:58:28.228Z,7.73
2018-12-31T19:00:59.361Z,7.27
2018-12-31T19:03:29.737Z,8.40
2018-12-31T19:06:02.174Z,8.17
2018-12-31T19:08:34.210Z,7.67
2018-12-31T19:11:04.784Z,10.83
2018-12-31T19:13:35.234Z,12.30
2018-12-31T19:16:05.611Z,12.43
2018-12-31T19:18:36.760Z,13.80
2018-12-31T19:21:07.943Z,16.43
2018-12-31T19:23:38.333Z,16.80
2018-12-31T19:26:09.699Z,14.00
2018-12-31T19:28:40.095Z,12.67
2018-12-31T19:31:10.467Z,12.17
2018-12-31T19:33:40.858Z,13.13
2018-12-31T19:36:12.033Z,17.00
2018-12-31T19:38:42.411Z,16.33
2018-12-31T19:41:12.788Z,12.57
2018-12-31T19:43:43.185Z,12.90
2018-12-31T19:46:14.323Z,12.33
2018-12-31T19:48:44.691Z,11.03
2018-12-31T19:51:15.086Z,11.73
2018-12-31T19:53:45.719Z,12.30
2018-12-31T19:56:17.074Z,15.57
2018-12-31T19:58:48.200Z,13.37
2018-12-31T20:01:18.590Z,13.13
2018-12-31T20:03:53.050Z,12.93
2018-12-31T20:06:24.224Z,12.37
2018-12-31T20:08:54.601Z,12.00
2018-12-31T20:11:24.987Z,12.50
2018-12-31T20:13:55.403Z,13.57
2018-12-31T20:16:25.791Z,17.63
2018-12-31T20:18:56.177Z,21.07
2018-12-31T20:21:32.722Z,24.10
2018-12-31T20:24:04.883Z,23.33
2018-12-31T20:26:35.453Z,19.90
2018-12-31T20:29:12.184Z,22.70
2018-12-31T20:31:43.325Z,22.80
2018-12-31T20:34:14.483Z,19.63
2018-12-31T20:36:44.880Z,27.23
2018-12-31T20:39:15.451Z,22.07
2018-12-31T20:41:45.832Z,15.70
2018-12-31T20:44:16.439Z,14.73
2018-12-31T20:47:07.279Z,13.87
2018-12-31T20:49:37.613Z,14.20
2018-12-31T20:52:08.011Z,14.43
2018-12-31T20:54:38.336Z,14.57
2018-12-31T20:57:08.735Z,15.37
2018-12-31T20:59:43.157Z,15.47
2018-12-31T21:02:17.638Z,14.57
2018-12-31T21:04:48.792Z,15.40
2018-12-31T21:07:19.981Z,17.20
2018-12-31T21:10:09.649Z,14.03
2018-12-31T21:12:46.382Z,16.90
2018-12-31T21:15:17.557Z,16.13
2018-12-31T21:17:47.939Z,17.73
2018-12-31T21:20:18.315Z,16.40
2018-12-31T21:22:49.011Z,13.43
2018-12-31T21:25:20.156Z,16.53
2018-12-31T21:27:51.244Z,14.10
2018-12-31T21:30:25.742Z,15.03
2018-12-31T21:32:56.118Z,12.50
2018-12-31T21:35:26.507Z,13.30
2018-12-31T21:37:58.114Z,12.93
2018-12-31T21:40:28.496Z,11.77
2018-12-31T21:42:58.876Z,12.17
2018-12-31T21:45:29.271Z,14.60
2018-12-31T21:47:59.655Z,15.10
2018-12-31T21:50:30.039Z,16.70
2018-12-31T21:53:00.451Z,14.83
2018-12-31T21:55:32.146Z,15.97
2018-12-31T21:58:03.288Z,17.10
2018-12-31T22:00:34.459Z,14.97
2018-12-31T22:03:04.840Z,14.20
2018-12-31T22:05:35.157Z,13.87
2018-12-31T22:08:05.577Z,13.93
2018-12-31T22:10:35.966Z,11.33
2018-12-31T22:13:07.521Z,13.70
2018-12-31T22:15:38.722Z,14.20
2018-12-31T22:18:09.292Z,16.67
2018-12-31T22:20:39.896Z,15.40
2018-12-31T22:23:11.060Z,12.77
2018-12-31T22:28:23.157Z,13.23
2018-12-31T22:30:55.576Z,12.40
2018-12-31T22:33:30.004Z,11.73
2018-12-31T22:36:07.963Z,13.73
2018-12-31T22:38:40.109Z,14.20
2018-12-31T22:41:10.495Z,13.80
2018-12-31T22:43:44.992Z,14.73
2018-12-31T22:46:15.333Z,15.10
2018-12-31T22:48:45.721Z,15.97
2018-12-31T22:51:16.887Z,15.37
2018-12-31T22:53:48.333Z,17.40
2018-12-31T22:56:18.717Z,15.90
2018-12-31T22:58:49.116Z,16.67
2018-12-31T23:01:19.504Z,16.63
2018-12-31T23:03:50.654Z,16.27
2018-12-31T23:06:21.824Z,13.20
2018-12-31T23:08:53.224Z,10.87
2018-12-31T23:11:23.593Z,9.97
2018-12-31T23:13:55.426Z,9.50
2018-12-31T23:16:26.573Z,12.17
2018-12-31T23:18:57.719Z,13.13
2018-12-31T23:21:28.885Z,13.30
2018-12-31T23:23:59.449Z,12.90
2018-12-31T23:26:30.017Z,12.33
2018-12-31T23:29:01.181Z,13.87
2018-12-31T23:31:31.501Z,12.03
2018-12-31T23:34:01.876Z,13.37
2018-12-31T23:36:32.287Z,13.67
2018-12-31T23:39:05.478Z,13.53
2018-12-31T23:41:36.065Z,13.70
2018-12-31T23:44:07.518Z,13.07
2018-12-31T23:46:38.673Z,11.97
2018-12-31T23:49:09.759Z,11.50
2018-12-31T23:51:41.200Z,11.67
2018-12-31T23:54:30.875Z,12.57
2018-12-31T23:57:08.595Z,13.07
2018-12-31T23:59:38.972Z,13.33
